North River — WYR2549 — position and weather

sailwx.info

Track history (hours):
 
Tides and Currents Weather Stations Pressure Air Temp Water Temp Dewpoint Dewpoint Depression Visibility Wind Speed Wind Dir Waves Ship Positions

North River

Owner: CITY OF NEW YORK, Brooklyn, NY. More information available from US FCC via Universal Licensing System and Coast Guard Vessel Documentation Center.

Last reported at 2015-Jan-26 19:15 UTC. Time now 2015-Jan-27 03:29 UTC.
Position N 40°48' W 073°53'.

Length 78 m.

Type: Tanker. MMSI: 367074110.

Date/timePositionNaut miles runAvg speedWind from/ knotsBaromVisibWave heightAir tempDewpointWater temp
2015-Jan-26 19:15N 40°48' W 073°53'0 0.0
2015-Jan-26 18:28N 40°48' W 073°53'0 0.0
2015-Jan-26 17:29N 40°48' W 073°53'2 0.8
2015-Jan-26 15:08N 40°48' W 073°51'712.5
2015-Jan-26 14:34N 40°44' W 073°58'2 2.0
2015-Jan-26 13:33N 40°46' W 073°57'3 2.8
2015-Jan-26 12:29N 40°47' W 073°54'0 0.0
2015-Jan-25 22:19N 40°47' W 073°53'5 6.6
2015-Jan-25 21:34N 40°44' W 073°58'9 7.8
2015-Jan-25 20:27N 40°38' W 074°08'0 0.0
2015-Jan-25 19:07N 40°38' W 074°08'0 0.0
2015-Jan-25 18:27N 40°38' W 074°08'6 6.5
2015-Jan-25 17:33N 40°42' W 074°02'4 1.5
2015-Jan-25 14:34N 40°46' W 073°60'3 3.4
2015-Jan-25 13:32N 40°47' W 073°55'2 0.1
2015-Jan-24 22:31N 40°47' W 073°53'7 7.6
2015-Jan-24 21:33N 40°42' W 074°00'7 5.3
2015-Jan-24 20:19N 40°38' W 074°08'1 0.4
2015-Jan-24 18:26N 40°39' W 074°07'910.5
2015-Jan-24 17:34N 40°46' W 074°00'4 1.6
2015-Jan-24 15:12N 40°50' W 073°58'811.9
2015-Jan-24 14:34N 40°43' W 074°01'7 0.4
2015-Jan-23 19:09N 40°47' W 073°54'2 3.4
2015-Jan-23 18:33N 40°47' W 073°56'4 3.8
2015-Jan-23 17:33N 40°45' W 074°01'3 1.1
2015-Jan-23 14:33N 40°42' W 074°01'8 8.0
2015-Jan-23 13:32N 40°48' W 073°54'1 0.1
2015-Jan-22 22:15N 40°47' W 073°55'6 8.1
2015-Jan-22 21:33N 40°43' W 073°59'8 2.5
2015-Jan-22 18:29N 40°39' W 074°08'1010.5
2015-Jan-22 17:30N 40°47' W 073°60'5 1.6
2015-Jan-22 14:33N 40°42' W 073°59'  
2015-Jan-17 21:26N 40°47' W 073°54'1011.4
2015-Jan-17 20:33N 40°40' W 074°03'4 4.1
2015-Jan-17 19:33N 40°38' W 074°08'0 0.0
2015-Jan-17 18:31N 40°38' W 074°08'4 4.1
2015-Jan-17 17:34N 40°40' W 074°03'5 1.7
2015-Jan-17 14:25N 40°45' W 074°01'3 0.2
2015-Jan-16 21:28N 40°46' W 073°57'1112.0
2015-Jan-16 20:33N 40°38' W 074°08'0 0.0
2015-Jan-16 19:33N 40°38' W 074°08'  
Track history (hours):
 
Tides and Currents Weather Stations Pressure Air Temp Water Temp Dewpoint Dewpoint Depression Visibility Wind Speed Wind Dir Waves Ship Positions

North River

Owner: CITY OF NEW YORK, Brooklyn, NY. More information available from US FCC via Universal Licensing System and Coast Guard Vessel Documentation Center.

Last reported at 2015-Jan-26 19:15 UTC. Time now 2015-Jan-27 03:29 UTC.
Position N 40°48' W 073°53'.

Length 78 m.

Type: Tanker. MMSI: 367074110.

Date/timePositionNaut miles runAvg speedWind from/ knotsBaromVisibWave heightAir tempDewpointWater temp
2015-Jan-26 19:15N 40°48' W 073°53'0 0.0
2015-Jan-26 18:28N 40°48' W 073°53'0 0.0
2015-Jan-26 17:29N 40°48' W 073°53'2 0.8
2015-Jan-26 15:08N 40°48' W 073°51'712.5
2015-Jan-26 14:34N 40°44' W 073°58'2 2.0
2015-Jan-26 13:33N 40°46' W 073°57'3 2.8
2015-Jan-26 12:29N 40°47' W 073°54'0 0.0
2015-Jan-25 22:19N 40°47' W 073°53'5 6.6
2015-Jan-25 21:34N 40°44' W 073°58'9 7.8
2015-Jan-25 20:27N 40°38' W 074°08'0 0.0
2015-Jan-25 19:07N 40°38' W 074°08'0 0.0
2015-Jan-25 18:27N 40°38' W 074°08'6 6.5
2015-Jan-25 17:33N 40°42' W 074°02'4 1.5
2015-Jan-25 14:34N 40°46' W 073°60'3 3.4
2015-Jan-25 13:32N 40°47' W 073°55'2 0.1
2015-Jan-24 22:31N 40°47' W 073°53'7 7.6
2015-Jan-24 21:33N 40°42' W 074°00'7 5.3
2015-Jan-24 20:19N 40°38' W 074°08'1 0.4
2015-Jan-24 18:26N 40°39' W 074°07'910.5
2015-Jan-24 17:34N 40°46' W 074°00'4 1.6
2015-Jan-24 15:12N 40°50' W 073°58'811.9
2015-Jan-24 14:34N 40°43' W 074°01'7 0.4
2015-Jan-23 19:09N 40°47' W 073°54'2 3.4
2015-Jan-23 18:33N 40°47' W 073°56'4 3.8
2015-Jan-23 17:33N 40°45' W 074°01'3 1.1
2015-Jan-23 14:33N 40°42' W 074°01'8 8.0
2015-Jan-23 13:32N 40°48' W 073°54'1 0.1
2015-Jan-22 22:15N 40°47' W 073°55'6 8.1
2015-Jan-22 21:33N 40°43' W 073°59'8 2.5
2015-Jan-22 18:29N 40°39' W 074°08'1010.5
2015-Jan-22 17:30N 40°47' W 073°60'5 1.6
2015-Jan-22 14:33N 40°42' W 073°59'  
2015-Jan-17 21:26N 40°47' W 073°54'1011.4
2015-Jan-17 20:33N 40°40' W 074°03'4 4.1
2015-Jan-17 19:33N 40°38' W 074°08'0 0.0
2015-Jan-17 18:31N 40°38' W 074°08'4 4.1
2015-Jan-17 17:34N 40°40' W 074°03'5 1.7
2015-Jan-17 14:25N 40°45' W 074°01'3 0.2
2015-Jan-16 21:28N 40°46' W 073°57'1112.0
2015-Jan-16 20:33N 40°38' W 074°08'0 0.0
2015-Jan-16 19:33N 40°38' W 074°08'  

Dump ship's entire track history